Terminal Aerodrome Forecast
Issued by NWS Wilmington, OH

Current Version | Previous Version | Text Only | Print | Product List | Glossary Off
Versions: 1 2 3 4 5 6 7 8 9 10 11 12 13 14 15 16 17 18 19

000
FTUS41 KILN 032330
TAFDAY
TAF
KDAY 032330Z 0400/0424 27009KT P6SM FEW060
     FM040400 VRB03KT P6SM VCTS SCT040CB BKN120
     FM041300 22009KT P6SM VCTS BKN040CB=

USA.gov is the U.S. government's official web portal to all federal, state and local government web resources and services.